Time;durP1;ratioP1;P1;durP2;ratioP2;P2;SDS_P1;SDS_P2;PMS_P1;PMS_P2;Temp;Humidity;BMP_temperature;BMP_pressure;BME280_temperature;BME280_humidity;BME280_pressure;Samples;Min_cycle;Max_cycle;Signal;HPM_P1;HPM_P2
2021/03/06 00:01:23;;;;;;;18.67;9.43;;;-1.50;97.30;;;;;;5015619;28;20299;-80
2021/03/06 00:03:48;;;;;;;21.77;10.30;;;-1.60;97.30;;;;;;5015647;28;20212;-81
2021/03/06 00:06:14;;;;;;;23.07;10.97;;;-1.60;97.30;;;;;;5000164;28;20181;-83
2021/03/06 00:08:40;;;;;;;26.37;10.77;;;-1.60;97.30;;;;;;4999732;28;20173;-81
2021/03/06 00:11:05;;;;;;;15.93;8.60;;;-1.60;97.30;;;;;;4999113;28;20424;-81
2021/03/06 00:13:34;;;;;;;18.60;8.67;;;-1.70;97.30;;;;;;4999436;28;20698;-80
2021/03/06 00:15:59;;;;;;;17.10;8.03;;;-1.80;97.30;;;;;;4999827;28;20173;-81
2021/03/06 00:18:25;;;;;;;18.70;9.57;;;-1.80;97.30;;;;;;4999755;28;20404;-79
2021/03/06 00:20:50;;;;;;;22.77;10.13;;;-1.80;97.30;;;;;;5000274;28;20541;-81
2021/03/06 00:23:17;;;;;;;26.63;10.57;;;-1.80;97.30;;;;;;5000792;28;20217;-81
2021/03/06 00:25:42;;;;;;;26.00;9.97;;;-1.90;97.30;;;;;;5000173;28;20205;-82
2021/03/06 00:28:09;;;;;;;19.73;10.10;;;-1.90;97.30;;;;;;5017808;28;20428;-81
2021/03/06 00:30:35;;;;;;;15.80;9.20;;;-1.90;97.30;;;;;;5000146;28;20209;-82
2021/03/06 00:33:01;;;;;;;19.87;9.70;;;-1.80;97.30;;;;;;4999690;28;20487;-81
2021/03/06 00:35:27;;;;;;;22.63;10.40;;;-1.80;97.30;;;;;;5000492;28;20204;-81
2021/03/06 00:37:53;;;;;;;23.50;10.10;;;-1.80;97.30;;;;;;5001096;28;20419;-80
2021/03/06 00:40:19;;;;;;;29.00;9.57;;;-1.80;97.30;;;;;;5000208;28;20507;-82
2021/03/06 00:42:44;;;;;;;29.93;9.93;;;-1.90;97.30;;;;;;4999948;28;20640;-81
2021/03/06 00:45:10;;;;;;;21.60;11.17;;;-1.90;97.30;;;;;;5001129;28;20208;-82
2021/03/06 00:47:36;;;;;;;21.57;10.10;;;-1.90;97.30;;;;;;5000094;28;20180;-82
2021/03/06 00:50:06;;;;;;;27.10;11.30;;;-1.80;97.30;;;;;;4999081;28;20420;-81
2021/03/06 00:52:31;;;;;;;21.60;10.20;;;-1.80;97.30;;;;;;5000235;28;20185;-80
2021/03/06 00:54:57;;;;;;;24.70;10.33;;;-1.80;97.30;;;;;;4999620;28;20447;-82
2021/03/06 00:57:22;;;;;;;24.73;10.27;;;-1.80;97.30;;;;;;4999913;28;20180;-81
2021/03/06 00:59:48;;;;;;;20.30;9.60;;;-1.80;97.30;;;;;;4999648;28;20682;-81
2021/03/06 01:02:14;;;;;;;19.60;9.73;;;-1.80;97.30;;;;;;5000559;28;20188;-81
2021/03/06 01:04:39;;;;;;;16.87;9.23;;;-1.80;97.30;;;;;;5004677;28;20233;-81
2021/03/06 01:07:05;;;;;;;19.93;9.20;;;-1.80;97.30;;;;;;5015767;28;20217;-81
2021/03/06 01:09:30;;;;;;;16.50;8.03;;;-1.80;97.30;;;;;;5015906;28;20231;-81
2021/03/06 01:11:56;;;;;;;22.90;7.80;;;-1.80;97.30;;;;;;5015576;28;20243;-81
2021/03/06 01:14:22;;;;;;;13.17;7.93;;;-1.80;97.30;;;;;;5015122;28;20244;-81
2021/03/06 01:16:48;;;;;;;13.83;8.30;;;-1.80;97.30;;;;;;5014915;28;20176;-81
2021/03/06 01:19:14;;;;;;;14.90;7.60;;;-1.80;97.30;;;;;;5015286;28;20209;-80
2021/03/06 01:21:41;;;;;;;12.73;7.70;;;-1.90;97.30;;;;;;5014380;28;20447;-81
2021/03/06 01:24:07;;;;;;;13.37;8.50;;;-1.90;97.30;;;;;;5014439;28;20304;-82
2021/03/06 01:26:33;;;;;;;14.70;7.80;;;-1.90;97.30;;;;;;5014716;28;20906;-83
2021/03/06 01:29:01;;;;;;;13.47;6.90;;;-1.90;97.30;;;;;;5014135;28;20447;-81
2021/03/06 01:31:26;;;;;;;15.67;9.13;;;-2.00;97.30;;;;;;5021168;28;20176;-81
2021/03/06 01:33:52;;;;;;;14.73;7.77;;;-2.00;97.30;;;;;;5021847;28;20527;-82
2021/03/06 01:36:18;;;;;;;13.60;8.13;;;-1.90;97.30;;;;;;5018558;28;20583;-81
2021/03/06 01:38:44;;;;;;;16.63;8.00;;;-1.90;97.30;;;;;;5021743;28;20208;-81
2021/03/06 01:41:09;;;;;;;17.40;8.23;;;-1.90;97.30;;;;;;5014527;28;20417;-82
2021/03/06 01:43:35;;;;;;;14.93;7.90;;;-1.90;97.30;;;;;;5020568;28;20651;-81
2021/03/06 01:46:01;;;;;;;15.13;7.70;;;-1.90;97.30;;;;;;5020635;28;20306;-82
2021/03/06 01:48:26;;;;;;;16.70;8.00;;;-2.00;97.30;;;;;;4994669;28;20190;-81
2021/03/06 01:50:52;;;;;;;14.60;7.33;;;-2.00;97.30;;;;;;4994428;28;20185;-81
2021/03/06 01:53:19;;;;;;;18.80;7.63;;;-2.10;97.30;;;;;;4997360;28;20212;-80
2021/03/06 01:55:47;;;;;;;17.03;8.17;;;-2.10;97.30;;;;;;4995446;28;20672;-82
2021/03/06 01:58:14;;;;;;;16.00;8.50;;;-2.10;97.30;;;;;;4999799;28;20421;-81
2021/03/06 02:00:41;;;;;;;10.90;7.07;;;-2.10;97.30;;;;;;5005885;28;20428;-82
2021/03/06 02:03:06;;;;;;;13.40;7.50;;;-2.10;97.30;;;;;;5012375;28;21025;-82
2021/03/06 02:05:32;;;;;;;14.63;7.70;;;-2.10;97.30;;;;;;5013042;28;20452;-82
2021/03/06 02:08:01;;;;;;;11.13;6.93;;;-2.10;97.30;;;;;;5001507;28;20213;-81
2021/03/06 02:10:30;;;;;;;11.40;7.00;;;-2.10;97.30;;;;;;4999758;28;20680;-81
2021/03/06 02:13:12;;;;;;;13.30;7.27;;;-2.10;97.30;;;;;;5000557;28;21073;-80
2021/03/06 02:15:48;;;;;;;11.83;6.83;;;-2.10;97.30;;;;;;5001743;28;20425;-81
2021/03/06 02:18:21;;;;;;;14.40;7.60;;;-2.10;97.30;;;;;;5001492;28;20409;-81
2021/03/06 02:21:17;;;;;;;11.20;7.50;;;-2.10;97.30;;;;;;5001746;28;20413;-81
2021/03/06 02:23:48;;;;;;;13.10;7.30;;;-2.20;97.30;;;;;;5001813;28;20418;-81
2021/03/06 02:26:53;;;;;;;16.67;7.33;;;-2.20;97.30;;;;;;5001315;28;20493;-82
2021/03/06 02:29:40;;;;;;;15.80;8.17;;;-2.20;97.30;;;;;;5001486;28;20501;-81
2021/03/06 02:32:28;;;;;;;14.03;7.40;;;-2.20;97.30;;;;;;5008906;28;20941;-80
2021/03/06 02:35:13;;;;;;;10.77;6.83;;;-2.10;97.30;;;;;;5021780;28;20523;-80
2021/03/06 02:38:06;;;;;;;11.90;6.70;;;-2.10;97.30;;;;;;5021252;28;20396;-80
2021/03/06 02:40:34;;;;;;;10.77;6.67;;;-2.10;97.30;;;;;;5023085;28;20929;-81
2021/03/06 02:43:01;;;;;;;12.57;7.03;;;-2.10;97.30;;;;;;5021519;28;20463;-82
2021/03/06 02:45:29;;;;;;;12.00;6.60;;;-2.10;97.30;;;;;;5021492;28;20448;-81
2021/03/06 02:47:56;;;;;;;13.53;6.90;;;-2.10;97.30;;;;;;5021614;28;20416;-80
2021/03/06 02:50:21;;;;;;;13.87;7.40;;;-2.10;97.30;;;;;;5021357;28;20480;-80
2021/03/06 02:52:47;;;;;;;8.97;6.40;;;-2.10;97.30;;;;;;5021601;28;20517;-81
2021/03/06 02:55:13;;;;;;;11.70;7.00;;;-2.20;97.30;;;;;;5019908;28;20219;-81
2021/03/06 02:58:29;;;;;;;10.07;5.80;;;-2.20;97.30;;;;;;5022369;28;20173;-81
2021/03/06 03:01:24;;;;;;;13.80;7.20;;;-2.20;97.30;;;;;;4988466;28;20185;-83
2021/03/06 03:03:56;;;;;;;14.43;7.10;;;-2.20;97.30;;;;;;5020877;28;20463;-81
2021/03/06 03:06:38;;;;;;;11.60;6.20;;;-2.30;97.30;;;;;;5004509;28;20815;-80
2021/03/06 03:09:14;;;;;;;12.33;8.33;;;-2.40;97.30;;;;;;5021859;28;20446;-81
2021/03/06 03:11:48;;;;;;;10.77;6.20;;;-2.40;97.30;;;;;;5004665;28;20427;-79
2021/03/06 03:14:18;;;;;;;12.80;7.10;;;-2.40;97.30;;;;;;5006686;28;20565;-81
2021/03/06 03:17:09;;;;;;;10.40;5.67;;;-2.40;97.30;;;;;;5008854;28;20424;-80
2021/03/06 03:19:48;;;;;;;11.70;6.97;;;-2.40;97.30;;;;;;5008102;28;20485;-81
2021/03/06 03:22:17;;;;;;;11.20;6.70;;;-2.40;97.30;;;;;;5008014;28;20462;-82
2021/03/06 03:24:45;;;;;;;14.60;6.63;;;-2.40;97.30;;;;;;5007039;28;20487;-80
2021/03/06 03:27:11;;;;;;;10.13;5.70;;;-2.40;97.30;;;;;;5007936;28;20441;-80
2021/03/06 03:29:41;;;;;;;13.80;6.77;;;-2.40;97.30;;;;;;5007552;28;20424;-80
2021/03/06 03:32:10;;;;;;;10.93;6.67;;;-2.40;97.30;;;;;;5007245;28;20431;-81
2021/03/06 03:34:37;;;;;;;15.40;6.53;;;-2.40;97.30;;;;;;5007297;28;20486;-81
2021/03/06 03:37:04;;;;;;;12.13;6.13;;;-2.40;97.30;;;;;;5025005;28;20426;-81
2021/03/06 03:39:31;;;;;;;15.83;7.20;;;-2.40;97.30;;;;;;5007320;28;20420;-80
2021/03/06 03:41:59;;;;;;;15.60;6.33;;;-2.40;97.30;;;;;;5007860;28;20430;-81
2021/03/06 03:44:25;;;;;;;9.40;6.17;;;-2.40;97.30;;;;;;5007749;28;20452;-80
2021/03/06 03:46:51;;;;;;;13.47;6.70;;;-2.40;97.30;;;;;;5003601;28;20420;-80
2021/03/06 03:49:20;;;;;;;13.17;6.57;;;-2.50;97.30;;;;;;5008250;28;20915;-80
2021/03/06 03:51:46;;;;;;;9.67;6.10;;;-2.50;97.30;;;;;;5007801;28;20974;-82
2021/03/06 03:54:14;;;;;;;14.90;6.77;;;-2.50;97.30;;;;;;5008258;28;20594;-81
2021/03/06 03:56:40;;;;;;;11.73;7.10;;;-2.50;97.30;;;;;;5008400;28;20439;-80
2021/03/06 03:59:06;;;;;;;10.47;6.53;;;-2.50;97.30;;;;;;5008588;28;20471;-80
2021/03/06 04:01:45;;;;;;;11.27;5.80;;;-2.50;97.30;;;;;;5008241;28;20416;-80
2021/03/06 04:04:28;;;;;;;13.27;6.40;;;-2.50;97.30;;;;;;5008336;28;20303;-79
2021/03/06 04:06:54;;;;;;;12.20;6.50;;;-2.50;97.30;;;;;;5025163;28;20503;-81
2021/03/06 04:09:20;;;;;;;12.13;7.57;;;-2.40;97.30;;;;;;5026013;28;20431;-80
2021/03/06 04:11:46;;;;;;;9.73;6.13;;;-2.50;97.30;;;;;;5025172;28;20485;-81
2021/03/06 04:14:12;;;;;;;12.10;6.97;;;-2.50;97.30;;;;;;5025423;28;20480;-80
2021/03/06 04:16:38;;;;;;;9.67;5.73;;;-2.50;97.30;;;;;;5026164;28;20169;-80
2021/03/06 04:19:04;;;;;;;11.27;6.70;;;-2.50;97.30;;;;;;5023443;28;20411;-80
2021/03/06 04:21:30;;;;;;;11.93;6.40;;;-2.50;97.30;;;;;;5026605;28;20432;-80
2021/03/06 04:23:56;;;;;;;12.13;7.77;;;-2.50;97.30;;;;;;5026315;28;20447;-80
2021/03/06 04:26:22;;;;;;;11.77;6.73;;;-2.50;97.30;;;;;;5026208;28;20420;-81
2021/03/06 04:28:47;;;;;;;13.30;6.63;;;-2.50;97.30;;;;;;5026994;28;20185;-80
2021/03/06 04:31:13;;;;;;;10.07;6.90;;;-2.50;97.30;;;;;;5027344;28;20431;-80
2021/03/06 04:33:39;;;;;;;14.37;7.20;;;-2.50;97.30;;;;;;5027038;28;20211;-80
2021/03/06 04:36:05;;;;;;;11.07;6.30;;;-2.50;97.30;;;;;;5026331;28;20173;-80
2021/03/06 04:38:31;;;;;;;10.63;6.03;;;-2.50;97.30;;;;;;5025284;28;20228;-80
2021/03/06 04:40:57;;;;;;;15.67;6.90;;;-2.60;97.30;;;;;;5024488;28;20421;-81
2021/03/06 04:43:22;;;;;;;13.17;6.70;;;-2.60;97.30;;;;;;5024846;28;20173;-80
2021/03/06 04:45:48;;;;;;;13.23;6.13;;;-2.70;97.30;;;;;;5025281;28;20200;-81
2021/03/06 04:48:13;;;;;;;18.30;6.77;;;-2.70;97.30;;;;;;5025285;28;20199;-80
2021/03/06 04:50:39;;;;;;;12.93;6.67;;;-2.80;97.30;;;;;;5024036;28;20177;-81
2021/03/06 04:53:05;;;;;;;13.80;6.77;;;-2.80;97.30;;;;;;5024675;28;20578;-81
2021/03/06 04:55:30;;;;;;;22.00;8.97;;;-2.80;97.30;;;;;;5023786;28;20193;-80
2021/03/06 04:57:56;;;;;;;13.93;7.57;;;-2.80;97.30;;;;;;5024508;28;20180;-80
2021/03/06 05:00:22;;;;;;;14.97;8.00;;;-2.70;97.30;;;;;;5023340;28;20181;-81
2021/03/06 05:02:48;;;;;;;13.40;7.47;;;-2.70;97.30;;;;;;5023061;28;20196;-80
2021/03/06 05:05:13;;;;;;;14.90;7.70;;;-2.70;97.30;;;;;;5022348;28;20467;-81
2021/03/06 05:07:41;;;;;;;13.30;7.97;;;-2.70;97.30;;;;;;5023205;28;20184;-80
2021/03/06 05:10:07;;;;;;;12.80;7.20;;;-2.70;97.30;;;;;;5023567;28;20188;-81
2021/03/06 05:12:32;;;;;;;14.13;7.73;;;-2.70;97.30;;;;;;5022755;28;20440;-80
2021/03/06 05:14:58;;;;;;;15.93;7.40;;;-2.70;97.30;;;;;;5023463;28;20451;-81
2021/03/06 05:17:24;;;;;;;16.83;7.57;;;-2.70;97.30;;;;;;5023341;28;20216;-80
2021/03/06 05:19:52;;;;;;;13.27;6.27;;;-2.70;97.30;;;;;;5022771;28;20178;-80
2021/03/06 05:22:17;;;;;;;16.30;7.40;;;-2.70;97.30;;;;;;5022774;28;20181;-80
2021/03/06 05:24:45;;;;;;;17.87;6.53;;;-2.70;97.30;;;;;;5022640;28;20452;-80
2021/03/06 05:27:11;;;;;;;12.83;7.80;;;-2.70;97.30;;;;;;5023381;28;20207;-80
2021/03/06 05:29:36;;;;;;;12.13;7.00;;;-2.70;97.30;;;;;;5024272;28;20954;-80
2021/03/06 05:32:05;;;;;;;19.20;8.20;;;-2.70;97.30;;;;;;5023835;28;20183;-81
2021/03/06 05:34:31;;;;;;;14.13;7.63;;;-2.70;97.30;;;;;;5024639;28;20294;-80
2021/03/06 05:36:57;;;;;;;15.10;7.40;;;-2.60;97.30;;;;;;5023839;28;20966;-81
2021/03/06 05:39:23;;;;;;;11.80;7.13;;;-2.70;97.30;;;;;;5029979;28;20510;-81
2021/03/06 05:41:49;;;;;;;17.17;7.90;;;-2.70;97.30;;;;;;5035355;28;20185;-82
2021/03/06 05:44:15;;;;;;;13.87;6.90;;;-2.60;97.30;;;;;;5032092;28;20429;-81
2021/03/06 05:46:42;;;;;;;14.40;7.97;;;-2.60;97.30;;;;;;5019750;28;20503;-83
2021/03/06 05:49:08;;;;;;;13.87;6.70;;;-2.60;97.30;;;;;;5020600;28;20409;-81
2021/03/06 05:51:38;;;;;;;12.90;7.10;;;-2.60;97.30;;;;;;5021357;28;20965;-81
2021/03/06 05:54:11;;;;;;;13.70;7.67;;;-2.60;97.30;;;;;;5022447;28;20472;-80
2021/03/06 05:56:40;;;;;;;15.27;8.20;;;-2.60;97.30;;;;;;5021299;28;20424;-82
2021/03/06 05:59:08;;;;;;;11.27;7.00;;;-2.60;97.30;;;;;;5022715;28;20417;-81
2021/03/06 06:01:35;;;;;;;14.00;7.03;;;-2.60;97.30;;;;;;5020504;28;20412;-81
2021/03/06 06:04:02;;;;;;;11.93;6.43;;;-2.60;97.30;;;;;;5021811;28;20531;-81
2021/03/06 06:06:32;;;;;;;15.60;6.80;;;-2.60;97.30;;;;;;5006159;28;20435;-80
2021/03/06 06:08:59;;;;;;;13.33;7.80;;;-2.50;97.30;;;;;;5006171;28;20424;-82
2021/03/06 06:11:28;;;;;;;13.43;6.90;;;-2.50;97.30;;;;;;5005150;28;20930;-80
2021/03/06 06:13:55;;;;;;;16.33;7.27;;;-2.50;97.30;;;;;;5007422;28;20472;-80
2021/03/06 06:16:30;;;;;;;13.53;7.23;;;-2.50;97.30;;;;;;5006281;28;20416;-79
2021/03/06 06:18:55;;;;;;;15.03;7.63;;;-2.40;97.30;;;;;;5006076;28;20431;-80
2021/03/06 06:21:44;;;;;;;17.13;7.43;;;-2.40;97.30;;;;;;5005764;28;20484;-81
2021/03/06 06:24:11;;;;;;;15.03;7.33;;;-2.30;97.30;;;;;;5005062;28;20713;-80
2021/03/06 06:26:37;;;;;;;15.10;7.80;;;-2.30;97.30;;;;;;5004730;28;20428;-80
2021/03/06 06:29:04;;;;;;;14.67;8.70;;;-2.30;97.30;;;;;;5004475;28;20506;-80
2021/03/06 06:31:32;;;;;;;12.67;7.70;;;-2.20;97.30;;;;;;5004062;28;20493;-80
2021/03/06 06:33:58;;;;;;;13.43;7.30;;;-2.20;97.30;;;;;;5003076;28;20479;-81
2021/03/06 06:36:38;;;;;;;14.70;8.23;;;-2.10;97.30;;;;;;5003575;28;20483;-80
2021/03/06 06:39:06;;;;;;;15.40;8.00;;;-2.10;97.30;;;;;;5003305;28;20177;-80
2021/03/06 06:41:51;;;;;;;18.80;8.97;;;-2.00;97.30;;;;;;4998683;28;20420;-80
2021/03/06 06:44:17;;;;;;;17.03;9.33;;;-1.90;97.30;;;;;;5003078;28;20456;-81
2021/03/06 06:46:43;;;;;;;13.13;8.27;;;-1.90;97.30;;;;;;5015585;28;20416;-82
2021/03/06 06:49:09;;;;;;;18.37;8.87;;;-1.80;97.30;;;;;;4996712;28;20204;-79
2021/03/06 06:51:34;;;;;;;15.90;7.93;;;-1.80;97.30;;;;;;4996401;28;20420;-79
2021/03/06 06:54:12;;;;;;;14.17;7.00;;;-1.70;97.30;;;;;;4997335;28;20212;-81
2021/03/06 06:56:39;;;;;;;21.13;8.57;;;-1.70;97.30;;;;;;4995882;28;20176;-79
2021/03/06 06:59:09;;;;;;;16.07;8.53;;;-1.70;97.30;;;;;;4997189;28;20456;-79
2021/03/06 07:01:38;;;;;;;15.80;8.50;;;-1.60;97.30;;;;;;4998199;28;20859;-82
2021/03/06 07:04:09;;;;;;;14.33;7.87;;;-1.60;97.30;;;;;;4997092;28;20491;-78
2021/03/06 07:06:35;;;;;;;16.03;8.20;;;-1.50;97.30;;;;;;4995939;28;21207;-78
2021/03/06 07:09:12;;;;;;;18.20;8.60;;;-1.50;97.30;;;;;;4997455;28;20501;-80
2021/03/06 07:11:44;;;;;;;20.30;8.73;;;-1.30;97.30;;;;;;5013721;28;20423;-78
2021/03/06 07:14:10;;;;;;;17.60;8.47;;;-1.20;97.30;;;;;;5013808;28;20475;-79
2021/03/06 07:17:08;;;;;;;19.50;8.80;;;-1.10;97.30;;;;;;5014336;28;20532;-81
2021/03/06 07:19:41;;;;;;;16.33;8.37;;;-0.90;97.30;;;;;;5014405;28;20161;-79
2021/03/06 07:22:07;;;;;;;12.83;6.90;;;-0.80;97.30;;;;;;4996666;28;20458;-81
2021/03/06 07:24:33;;;;;;;17.40;7.50;;;-0.60;97.30;;;;;;4995993;28;20436;-80
2021/03/06 07:26:59;;;;;;;17.23;9.13;;;-0.50;97.30;;;;;;4996546;28;20185;-80
2021/03/06 07:29:26;;;;;;;16.40;7.90;;;-0.40;97.30;;;;;;4996473;28;20983;-81
2021/03/06 07:31:53;;;;;;;15.13;8.03;;;-0.20;97.30;;;;;;4996604;28;20681;-81
2021/03/06 07:34:25;;;;;;;16.93;8.23;;;-0.10;97.30;;;;;;4998623;28;20481;-82
2021/03/06 07:36:57;;;;;;;16.87;8.03;;;0.00;97.30;;;;;;5001502;28;20467;-80
2021/03/06 07:39:26;;;;;;;14.10;8.03;;;0.10;97.30;;;;;;4995858;28;20774;-80
2021/03/06 07:41:59;;;;;;;16.23;8.50;;;0.20;97.30;;;;;;4984717;28;20411;-81
2021/03/06 07:44:28;;;;;;;25.43;9.97;;;0.30;97.30;;;;;;4999347;28;20471;-82
2021/03/06 07:46:56;;;;;;;12.50;6.27;;;0.40;97.30;;;;;;5006472;28;20433;-80
2021/03/06 07:49:28;;;;;;;15.13;7.37;;;0.50;97.30;;;;;;5009940;28;20416;-81
2021/03/06 07:51:56;;;;;;;21.63;8.00;;;0.70;97.30;;;;;;4996819;28;20428;-80
2021/03/06 07:54:22;;;;;;;14.10;7.23;;;0.70;97.30;;;;;;4996010;28;20507;-82
2021/03/06 07:56:48;;;;;;;14.13;6.80;;;0.80;97.30;;;;;;4998148;28;20428;-79
2021/03/06 07:59:14;;;;;;;13.23;7.33;;;0.90;97.30;;;;;;5014952;28;20446;-79
2021/03/06 08:01:40;;;;;;;12.80;6.90;;;1.00;97.30;;;;;;5017785;28;20177;-79
2021/03/06 08:04:06;;;;;;;10.23;6.67;;;1.10;97.30;;;;;;4997399;28;20219;-79
2021/03/06 08:06:34;;;;;;;12.27;6.70;;;1.30;97.30;;;;;;5007791;28;20424;-78
2021/03/06 08:09:02;;;;;;;12.63;6.30;;;1.30;96.50;;;;;;4998170;28;20198;-78
2021/03/06 08:11:34;;;;;;;13.50;6.73;;;1.40;96.50;;;;;;4989444;28;20955;-80
2021/03/06 08:14:03;;;;;;;15.00;6.90;;;1.50;96.10;;;;;;4981608;28;20476;-80
2021/03/06 08:16:30;;;;;;;10.83;5.50;;;1.70;96.70;;;;;;5012329;28;20429;-79
2021/03/06 08:19:19;;;;;;;8.90;5.63;;;1.90;95.80;;;;;;4994842;28;20428;-81
2021/03/06 08:21:49;;;;;;;9.60;5.70;;;2.00;95.00;;;;;;5001778;28;20421;-81
2021/03/06 08:24:15;;;;;;;11.80;5.87;;;2.20;94.20;;;;;;4998147;28;20447;-81
2021/03/06 08:26:52;;;;;;;10.10;6.03;;;2.30;93.80;;;;;;4993399;28;20496;-79
2021/03/06 08:29:27;;;;;;;10.77;5.00;;;2.30;92.60;;;;;;4995115;28;20582;-81
2021/03/06 08:32:13;;;;;;;12.33;5.60;;;2.40;92.50;;;;;;4993652;28;20424;-80
2021/03/06 08:34:42;;;;;;;7.73;5.07;;;2.50;91.90;;;;;;5022450;28;20471;-82
2021/03/06 08:37:15;;;;;;;8.23;4.53;;;2.60;91.60;;;;;;5016998;28;20830;-80
2021/03/06 08:39:59;;;;;;;11.30;5.43;;;2.70;90.90;;;;;;5010075;28;20502;-80
2021/03/06 08:42:25;;;;;;;8.50;5.13;;;2.80;91.30;;;;;;5021052;28;20467;-81
2021/03/06 08:44:52;;;;;;;8.67;5.43;;;2.90;90.90;;;;;;5017231;28;20444;-81
2021/03/06 08:47:22;;;;;;;6.30;4.30;;;3.00;90.90;;;;;;5004865;28;20511;-80
2021/03/06 08:49:50;;;;;;;13.40;5.03;;;3.00;89.90;;;;;;5006121;28;20420;-81
2021/03/06 08:52:15;;;;;;;7.40;5.20;;;3.10;90.10;;;;;;5007659;28;20431;-83
2021/03/06 08:54:41;;;;;;;11.23;5.80;;;3.10;90.20;;;;;;5006653;28;20537;-80
2021/03/06 08:57:34;;;;;;;10.50;5.13;;;3.00;90.20;;;;;;5008636;28;20181;-81
2021/03/06 09:00:03;;;;;;;9.33;4.80;;;3.20;90.90;;;;;;5007973;28;20189;-81
2021/03/06 09:02:32;;;;;;;11.33;5.80;;;3.20;90.20;;;;;;5008214;28;20416;-80
2021/03/06 09:05:15;;;;;;;7.93;4.83;;;3.30;90.20;;;;;;5013911;28;20476;-80
2021/03/06 09:07:44;;;;;;;8.30;4.40;;;3.40;90.70;;;;;;5023343;28;20428;-80
2021/03/06 09:10:25;;;;;;;6.10;4.53;;;3.50;91.10;;;;;;5026255;28;20431;-81
2021/03/06 09:12:58;;;;;;;12.17;4.20;;;3.70;91.00;;;;;;5028784;28;20389;-81
2021/03/06 09:15:30;;;;;;;9.00;4.30;;;3.90;90.20;;;;;;5028752;28;20451;-78
2021/03/06 09:17:57;;;;;;;5.73;3.73;;;4.00;90.00;;;;;;5017954;28;20405;-81
2021/03/06 09:20:24;;;;;;;9.47;4.20;;;4.00;90.40;;;;;;5020803;28;20923;-82
2021/03/06 09:22:50;;;;;;;11.90;4.70;;;4.10;90.40;;;;;;5016128;28;20412;-81
2021/03/06 09:25:31;;;;;;;13.40;4.57;;;4.10;90.60;;;;;;5021280;28;20467;-81
2021/03/06 09:27:57;;;;;;;7.07;4.30;;;4.20;90.70;;;;;;5022849;28;20423;-79
2021/03/06 09:30:36;;;;;;;14.60;4.40;;;4.20;91.00;;;;;;5014997;28;20412;-79
2021/03/06 09:33:03;;;;;;;8.83;4.80;;;4.20;90.70;;;;;;5020525;28;20470;-79
2021/03/06 09:35:29;;;;;;;13.10;4.10;;;4.10;90.90;;;;;;5020929;28;20563;-80
2021/03/06 09:38:10;;;;;;;8.27;3.47;;;4.20;90.80;;;;;;5022596;28;20910;-81
2021/03/06 09:40:42;;;;;;;6.57;3.43;;;4.20;90.50;;;;;;5012659;28;20177;-78
2021/03/06 09:43:08;;;;;;;10.70;4.40;;;4.20;90.80;;;;;;5018968;28;20455;-80
2021/03/06 09:45:34;;;;;;;7.53;4.30;;;4.30;90.50;;;;;;5016406;28;20952;-80
2021/03/06 09:48:11;;;;;;;5.87;3.87;;;4.50;91.00;;;;;;5020161;28;20424;-81
2021/03/06 09:50:39;;;;;;;10.80;3.73;;;4.70;90.60;;;;;;5013137;28;20181;-81
2021/03/06 09:53:15;;;;;;;10.30;3.80;;;4.80;89.90;;;;;;5014616;28;20501;-81
2021/03/06 09:55:41;;;;;;;6.23;3.97;;;4.70;89.50;;;;;;5015318;28;21015;-82
2021/03/06 09:58:24;;;;;;;7.10;3.70;;;4.80;89.70;;;;;;5016751;28;20420;-81
2021/03/06 10:00:51;;;;;;;7.17;4.03;;;5.00;89.70;;;;;;5012765;28;20460;-82
2021/03/06 10:03:34;;;;;;;13.07;5.20;;;5.20;89.40;;;;;;5014003;28;20430;-80
2021/03/06 10:06:02;;;;;;;7.90;4.07;;;5.10;87.90;;;;;;5009490;28;20467;-82
2021/03/06 10:08:31;;;;;;;7.00;3.70;;;5.10;88.50;;;;;;5009984;28;20423;-80
2021/03/06 10:10:58;;;;;;;8.70;3.70;;;5.10;87.90;;;;;;5011136;28;20473;-81
2021/03/06 10:13:24;;;;;;;6.37;3.57;;;5.20;88.50;;;;;;5012547;28;20458;-81
2021/03/06 10:15:54;;;;;;;6.17;3.80;;;5.30;88.40;;;;;;5016506;28;20838;-82
2021/03/06 10:18:20;;;;;;;8.33;3.47;;;5.20;88.00;;;;;;5014054;28;20486;-83
2021/03/06 10:20:48;;;;;;;6.67;3.33;;;5.00;87.30;;;;;;5021602;28;20414;-82
2021/03/06 10:23:15;;;;;;;4.27;3.30;;;5.00;88.50;;;;;;5013326;28;20428;-81
2021/03/06 10:25:41;;;;;;;7.23;3.70;;;4.90;88.20;;;;;;5017419;28;20440;-82
2021/03/06 10:28:11;;;;;;;6.37;3.50;;;5.00;88.30;;;;;;5015082;28;20419;-82
2021/03/06 10:30:39;;;;;;;5.17;3.10;;;5.10;88.30;;;;;;5022160;28;20466;-81
2021/03/06 10:33:17;;;;;;;5.23;3.10;;;5.30;87.90;;;;;;5017279;28;20463;-83
2021/03/06 10:35:46;;;;;;;6.83;3.00;;;5.60;87.60;;;;;;5016903;28;20447;-81
2021/03/06 10:38:28;;;;;;;8.63;2.67;;;5.80;85.30;;;;;;5014675;28;20783;-81
2021/03/06 10:41:02;;;;;;;6.20;4.70;;;5.80;85.00;;;;;;5015832;28;20978;-81
2021/03/06 10:43:30;;;;;;;4.70;3.63;;;5.90;85.00;;;;;;5013335;28;20470;-81
2021/03/06 10:46:17;;;;;;;5.50;3.50;;;6.00;85.20;;;;;;5014088;28;20499;-81
2021/03/06 10:48:50;;;;;;;5.43;3.07;;;6.00;84.60;;;;;;5013034;28;20412;-81
2021/03/06 10:51:16;;;;;;;6.73;4.13;;;6.00;83.90;;;;;;5013323;28;20420;-82
2021/03/06 10:53:42;;;;;;;3.80;3.10;;;5.70;82.80;;;;;;5015371;28;20458;-82
2021/03/06 10:56:19;;;;;;;6.63;2.90;;;5.60;83.40;;;;;;5013954;28;20189;-83
2021/03/06 10:58:47;;;;;;;5.37;3.07;;;5.80;83.00;;;;;;5015155;28;20419;-82
2021/03/06 11:01:15;;;;;;;38.37;27.73;;;6.00;83.00;;;;;;5014709;28;20598;-81
2021/03/06 11:03:45;;;;;;;5.30;3.00;;;6.10;81.70;;;;;;5016362;28;20416;-81
2021/03/06 11:06:13;;;;;;;12.60;5.03;;;5.80;81.60;;;;;;5015646;28;20468;-82
2021/03/06 11:08:40;;;;;;;3.50;2.60;;;5.90;82.20;;;;;;5010342;28;20442;-79
2021/03/06 11:11:07;;;;;;;4.20;3.07;;;5.90;82.20;;;;;;5011301;28;20431;-80
2021/03/06 11:13:38;;;;;;;7.53;2.80;;;6.00;82.80;;;;;;5004540;28;20487;-81
2021/03/06 11:16:04;;;;;;;5.33;2.70;;;6.10;82.30;;;;;;4994105;28;20970;-81
2021/03/06 11:18:30;;;;;;;6.33;3.00;;;6.20;82.10;;;;;;4994478;28;20417;-80
2021/03/06 11:20:56;;;;;;;4.40;2.40;;;6.30;81.40;;;;;;4995974;28;20405;-80
2021/03/06 11:23:21;;;;;;;4.97;2.63;;;6.30;81.00;;;;;;4995351;28;20182;-81
2021/03/06 11:25:48;;;;;;;5.37;2.50;;;6.20;81.20;;;;;;4992260;28;20322;-79
2021/03/06 11:28:15;;;;;;;4.03;2.77;;;6.50;81.40;;;;;;4994148;28;20204;-81
2021/03/06 11:30:43;;;;;;;2.87;2.10;;;6.80;81.50;;;;;;4995257;28;20496;-81
2021/03/06 11:33:10;;;;;;;14.00;2.67;;;6.90;81.00;;;;;;4995047;28;20512;-81
2021/03/06 11:35:37;;;;;;;3.70;2.30;;;7.00;81.00;;;;;;4996551;28;20445;-81
2021/03/06 11:38:05;;;;;;;4.93;2.20;;;7.20;80.90;;;;;;5005627;28;20532;-82
2021/03/06 11:40:33;;;;;;;5.13;1.93;;;7.20;79.90;;;;;;5004898;28;20421;-81
2021/03/06 11:43:00;;;;;;;3.10;2.33;;;7.10;80.20;;;;;;5005398;28;20421;-82
2021/03/06 11:45:26;;;;;;;2.90;2.23;;;6.90;80.40;;;;;;4996611;28;21213;-81
2021/03/06 11:47:53;;;;;;;7.83;2.07;;;6.80;81.40;;;;;;5005666;28;20432;-82
2021/03/06 11:50:21;;;;;;;4.97;2.20;;;6.70;81.10;;;;;;5004960;28;20504;-81
2021/03/06 11:52:47;;;;;;;6.77;2.43;;;6.60;81.10;;;;;;5023141;28;20507;-81
2021/03/06 11:55:17;;;;;;;3.60;1.93;;;6.90;82.20;;;;;;5025955;28;20508;-81
2021/03/06 11:57:44;;;;;;;2.73;2.10;;;7.30;81.00;;;;;;5024490;28;20417;-81
2021/03/06 12:00:18;;;;;;;3.20;2.50;;;7.40;80.80;;;;;;5020977;28;20420;-81
2021/03/06 12:02:45;;;;;;;4.93;3.07;;;7.50;80.50;;;;;;5023734;28;20442;-80
2021/03/06 12:05:14;;;;;;;8.47;4.23;;;7.30;80.00;;;;;;5023989;28;20460;-81
2021/03/06 12:07:44;;;;;;;2.70;2.50;;;7.30;80.50;;;;;;5023878;28;20473;-82
2021/03/06 12:10:13;;;;;;;3.07;2.07;;;7.70;80.20;;;;;;5024310;28;20408;-81
2021/03/06 12:12:39;;;;;;;4.63;2.50;;;8.00;79.50;;;;;;5018793;28;20431;-80
2021/03/06 12:15:06;;;;;;;4.97;2.30;;;8.00;79.30;;;;;;5024436;28;20508;-81
2021/03/06 12:17:32;;;;;;;2.93;2.00;;;8.30;79.40;;;;;;5023628;28;20416;-81
2021/03/06 12:19:59;;;;;;;2.50;1.83;;;8.70;78.30;;;;;;5014962;28;20473;-79
2021/03/06 12:22:24;;;;;;;2.13;1.73;;;8.80;77.30;;;;;;5020688;28;20255;-82
2021/03/06 12:24:50;;;;;;;3.00;2.40;;;9.10;77.60;;;;;;5025581;28;20444;-80
2021/03/06 12:27:16;;;;;;;3.77;1.60;;;9.20;76.30;;;;;;5015788;28;20549;-79
2021/03/06 12:29:42;;;;;;;2.60;1.97;;;9.10;76.70;;;;;;5014652;28;20185;-78
2021/03/06 12:32:09;;;;;;;2.40;1.83;;;9.00;77.20;;;;;;5014663;28;20416;-78
2021/03/06 12:34:38;;;;;;;1.90;1.60;;;8.60;77.90;;;;;;5014316;28;20490;-78
2021/03/06 12:37:05;;;;;;;2.13;1.90;;;8.10;78.70;;;;;;5020167;28;20412;-79
2021/03/06 12:39:31;;;;;;;4.63;1.60;;;7.70;80.10;;;;;;5015804;28;20439;-81
2021/03/06 12:41:57;;;;;;;4.30;2.27;;;7.20;79.60;;;;;;5024945;28;20420;-81
2021/03/06 12:44:22;;;;;;;1.60;1.50;;;6.90;80.40;;;;;;5025166;28;20450;-81
2021/03/06 12:46:48;;;;;;;1.47;1.40;;;6.90;81.00;;;;;;5016278;28;20417;-82
2021/03/06 12:49:18;;;;;;;2.80;1.63;;;6.80;80.20;;;;;;5005294;28;20192;-81
2021/03/06 12:51:44;;;;;;;5.90;1.80;;;6.90;80.60;;;;;;5005707;28;20182;-82
2021/03/06 12:54:10;;;;;;;3.63;2.00;;;6.90;80.10;;;;;;5005825;28;20575;-81